createdAt,value
2019-01-19T00:02:10.093Z,4.80
2019-01-19T00:06:02.826Z,4.42
2019-01-19T00:09:19.133Z,5.03
2019-01-19T00:12:57.934Z,4.92
2019-01-19T00:16:31.720Z,4.45
2019-01-19T00:20:19.183Z,6.28
2019-01-19T00:24:06.919Z,4.85
2019-01-19T00:28:00.825Z,4.08
2019-01-19T00:31:40.881Z,6.53
2019-01-19T00:35:23.383Z,6.30
2019-01-19T00:39:07.989Z,6.10
2019-01-19T00:42:53.472Z,5.80
2019-01-19T00:46:32.271Z,4.65
2019-01-19T00:49:48.487Z,6.85
2019-01-19T00:53:29.661Z,4.70
2019-01-19T00:56:49.105Z,4.22
2019-01-19T00:59:59.968Z,5.45
2019-01-19T01:03:41.280Z,6.42
2019-01-19T01:07:30.561Z,7.00
2019-01-19T01:10:54.865Z,6.58
2019-01-19T01:14:39.411Z,5.35
2019-01-19T01:18:10.173Z,5.08
2019-01-19T01:21:56.791Z,5.12
2019-01-19T01:25:43.683Z,5.97
2019-01-19T01:29:28.167Z,5.97
2019-01-19T01:33:34.141Z,6.12
2019-01-19T01:37:17.994Z,5.78
2019-01-19T01:41:20.747Z,6.28
2019-01-19T01:45:03.199Z,6.10
2019-01-19T01:48:55.791Z,5.67
2019-01-19T01:52:29.332Z,6.40
2019-01-19T01:55:48.374Z,5.55
2019-01-19T01:59:35.970Z,5.85
2019-01-19T02:03:06.995Z,5.12
2019-01-19T02:06:40.666Z,4.83
2019-01-19T02:10:22.979Z,6.67
2019-01-19T02:13:55.012Z,6.25
2019-01-19T02:17:43.220Z,6.10
2019-01-19T02:21:29.688Z,6.85
2019-01-19T02:25:11.520Z,6.00
2019-01-19T02:28:28.968Z,5.55
2019-01-19T02:32:17.412Z,6.10
2019-01-19T02:35:51.021Z,5.20
2019-01-19T02:39:57.217Z,4.70
2019-01-19T02:43:28.969Z,5.05
2019-01-19T02:47:14.867Z,6.15
2019-01-19T02:50:30.293Z,6.05
2019-01-19T02:54:13.838Z,5.67
2019-01-19T02:57:56.377Z,5.60
2019-01-19T03:01:45.971Z,8.10
2019-01-19T03:05:23.901Z,8.00
2019-01-19T03:09:08.994Z,5.60
2019-01-19T03:12:52.436Z,5.45
2019-01-19T03:16:25.346Z,12.23
2019-01-19T03:20:46.987Z,8.35
2019-01-19T03:24:22.407Z,9.90
2019-01-19T03:27:37.827Z,6.10
2019-01-19T03:31:12.466Z,4.37
2019-01-19T03:34:54.996Z,3.42
2019-01-19T03:38:37.898Z,3.85
2019-01-19T03:41:52.593Z,4.45
2019-01-19T03:45:44.429Z,4.55
2019-01-19T03:49:18.763Z,3.85
2019-01-19T03:53:12.436Z,6.55
2019-01-19T03:57:03.032Z,4.30
2019-01-19T04:01:03.197Z,4.90
2019-01-19T04:04:43.182Z,4.10
2019-01-19T04:08:38.546Z,3.87
2019-01-19T04:12:15.356Z,4.50
2019-01-19T04:15:57.946Z,4.90
2019-01-19T04:19:30.356Z,3.77
2019-01-19T04:23:00.829Z,3.45
2019-01-19T04:26:22.658Z,3.00
2019-01-19T04:29:31.734Z,1.55
2019-01-19T04:32:38.710Z,3.15
2019-01-19T04:35:45.651Z,2.98
2019-01-19T04:38:52.795Z,2.25
2019-01-19T04:41:59.829Z,2.30
2019-01-19T04:45:07.074Z,3.70
2019-01-19T04:48:14.572Z,3.00
2019-01-19T04:51:21.549Z,3.98
2019-01-19T04:54:28.480Z,3.83
2019-01-19T04:57:36.875Z,3.20
2019-01-19T05:00:43.901Z,3.67
2019-01-19T05:03:50.924Z,3.58
2019-01-19T05:06:58.005Z,3.08
2019-01-19T05:10:06.064Z,3.77
2019-01-19T05:13:12.931Z,4.10
2019-01-19T05:16:20.182Z,3.83
2019-01-19T05:19:27.290Z,4.85
2019-01-19T05:22:34.498Z,4.37
2019-01-19T05:25:41.467Z,5.20
2019-01-19T05:28:48.506Z,3.92
2019-01-19T05:31:55.477Z,3.98
2019-01-19T05:35:03.540Z,5.03
2019-01-19T05:38:10.731Z,4.10
2019-01-19T05:41:17.646Z,3.42
2019-01-19T05:44:24.697Z,5.60
2019-01-19T05:47:31.939Z,4.25
2019-01-19T05:50:38.956Z,3.47
2019-01-19T05:53:48.361Z,4.42
2019-01-19T05:56:55.127Z,5.08
2019-01-19T06:00:01.969Z,3.92
2019-01-19T06:03:08.878Z,4.25
2019-01-19T06:06:16.325Z,5.05
2019-01-19T06:09:23.434Z,3.75
2019-01-19T06:12:30.489Z,4.90
2019-01-19T06:15:37.820Z,3.33
2019-01-19T06:18:45.393Z,2.42
2019-01-19T06:21:59.233Z,2.77
2019-01-19T06:25:07.331Z,2.33
2019-01-19T06:28:14.343Z,2.52
2019-01-19T06:31:21.358Z,1.87
2019-01-19T06:34:29.269Z,2.25
2019-01-19T06:37:36.396Z,2.37
2019-01-19T06:40:43.367Z,2.50
2019-01-19T06:43:50.285Z,2.72
2019-01-19T06:46:58.357Z,2.98
2019-01-19T06:50:06.161Z,2.40
2019-01-19T06:53:13.102Z,3.10
2019-01-19T06:56:20.043Z,2.30
2019-01-19T06:59:27.202Z,2.90
2019-01-19T07:02:36.140Z,2.90
2019-01-19T07:05:43.433Z,3.50
2019-01-19T07:08:52.719Z,3.47
2019-01-19T07:12:00.202Z,3.12
2019-01-19T07:15:08.269Z,4.37
2019-01-19T07:18:15.199Z,2.87
2019-01-19T07:21:22.101Z,3.37
2019-01-19T07:24:29.023Z,3.40
2019-01-19T07:27:36.083Z,3.58
2019-01-19T07:30:43.187Z,3.70
2019-01-19T07:33:50.466Z,2.92
2019-01-19T07:36:57.513Z,2.55
2019-01-19T07:40:05.293Z,2.60
2019-01-19T07:43:16.356Z,3.05
2019-01-19T07:46:23.891Z,2.25
2019-01-19T07:49:31.600Z,2.42
2019-01-19T07:52:38.531Z,3.08
2019-01-19T07:55:45.385Z,1.70
2019-01-19T07:58:53.146Z,3.05
2019-01-19T08:02:00.958Z,2.75
2019-01-19T08:05:11.106Z,2.33
2019-01-19T08:08:18.348Z,3.37
2019-01-19T08:11:25.341Z,3.05
2019-01-19T08:14:34.041Z,4.45
2019-01-19T08:17:41.163Z,4.05
2019-01-19T08:20:48.472Z,4.03
2019-01-19T08:23:55.690Z,6.58
2019-01-19T08:27:02.947Z,4.08
2019-01-19T08:30:16.559Z,4.35
2019-01-19T08:33:23.968Z,6.45
2019-01-19T08:36:31.373Z,6.45
2019-01-19T08:39:38.364Z,10.32
2019-01-19T08:42:46.270Z,5.53
2019-01-19T08:45:53.153Z,5.42
2019-01-19T08:49:00.722Z,6.10
2019-01-19T08:52:07.968Z,5.25
2019-01-19T08:55:14.961Z,5.37
2019-01-19T08:58:22.112Z,5.50
2019-01-19T09:01:29.222Z,4.70
2019-01-19T09:04:36.211Z,5.08
2019-01-19T09:07:44.361Z,4.97
2019-01-19T09:10:51.513Z,4.95
2019-01-19T09:13:58.620Z,3.95
2019-01-19T09:17:05.726Z,4.53
2019-01-19T09:20:16.027Z,4.45
2019-01-19T09:23:29.968Z,5.10
2019-01-19T09:26:37.037Z,4.47
2019-01-19T09:29:46.413Z,4.78
2019-01-19T09:32:53.671Z,5.10
2019-01-19T09:36:00.792Z,3.80
2019-01-19T09:39:11.639Z,3.60
2019-01-19T09:42:19.605Z,6.03
2019-01-19T09:45:26.608Z,4.45
2019-01-19T09:48:33.601Z,4.03
2019-01-19T09:51:40.774Z,4.08
2019-01-19T09:54:48.849Z,3.98
2019-01-19T09:57:55.876Z,3.85
2019-01-19T10:01:03.052Z,4.22
2019-01-19T10:04:10.245Z,4.03
2019-01-19T10:07:17.938Z,6.40
2019-01-19T10:10:25.051Z,4.90
2019-01-19T10:13:32.556Z,3.87
2019-01-19T10:16:49.672Z,4.95
2019-01-19T10:19:56.627Z,3.72
2019-01-19T10:23:04.092Z,3.87
2019-01-19T10:26:11.337Z,5.45
2019-01-19T10:29:18.972Z,6.05
2019-01-19T10:32:26.427Z,4.55
2019-01-19T10:35:33.611Z,8.78
2019-01-19T10:38:40.793Z,9.80
2019-01-19T10:41:47.999Z,4.03
2019-01-19T10:44:55.393Z,5.47
2019-01-19T10:48:02.465Z,4.08
2019-01-19T10:51:09.440Z,6.53
2019-01-19T10:54:16.918Z,3.80
2019-01-19T10:57:24.059Z,3.23
2019-01-19T11:00:32.271Z,4.27
2019-01-19T11:03:39.362Z,6.63
2019-01-19T11:06:46.498Z,6.50
2019-01-19T11:09:53.450Z,3.37
2019-01-19T11:13:01.236Z,3.20
2019-01-19T11:16:08.447Z,4.33
2019-01-19T11:19:15.552Z,4.53
2019-01-19T11:22:22.561Z,4.40
2019-01-19T11:25:31.106Z,3.00
2019-01-19T11:28:38.401Z,2.03
2019-01-19T11:31:45.618Z,3.50
2019-01-19T11:34:52.749Z,2.97
2019-01-19T11:38:00.045Z,3.20
2019-01-19T11:41:07.016Z,4.53
2019-01-19T11:44:13.883Z,3.23
2019-01-19T11:47:20.905Z,3.30
2019-01-19T11:50:27.962Z,3.97
2019-01-19T11:53:37.250Z,4.00
2019-01-19T11:56:44.582Z,4.15
2019-01-19T11:59:51.829Z,3.87
2019-01-19T12:02:58.850Z,2.58
2019-01-19T12:06:05.746Z,4.87
2019-01-19T12:09:12.767Z,4.58
2019-01-19T12:12:19.707Z,6.78
2019-01-19T12:15:27.132Z,21.73
2019-01-19T12:18:34.182Z,6.03
2019-01-19T12:21:41.369Z,3.67
2019-01-19T12:24:48.397Z,2.80
2019-01-19T12:27:55.583Z,3.15
2019-01-19T12:31:02.756Z,4.33
2019-01-19T12:34:09.797Z,3.25
2019-01-19T12:37:17.522Z,2.58
2019-01-19T12:40:25.385Z,4.17
2019-01-19T12:43:32.295Z,2.00
2019-01-19T12:46:39.398Z,2.50
2019-01-19T12:49:46.644Z,2.75
2019-01-19T12:52:53.558Z,2.70
2019-01-19T12:56:00.768Z,3.12
2019-01-19T12:59:07.738Z,2.30
2019-01-19T13:02:14.611Z,3.65
2019-01-19T13:05:46.805Z,4.03
2019-01-19T13:08:53.901Z,2.83
2019-01-19T13:12:28.288Z,3.22
2019-01-19T13:16:28.171Z,2.00
2019-01-19T13:20:15.403Z,2.72
2019-01-19T13:23:53.343Z,2.05
2019-01-19T13:27:23.022Z,2.25
2019-01-19T13:31:18.914Z,1.85
2019-01-19T13:35:15.383Z,1.75
2019-01-19T13:39:07.849Z,3.33
2019-01-19T13:42:57.298Z,2.33
2019-01-19T13:46:53.808Z,2.80
2019-01-19T13:50:43.232Z,2.83
2019-01-19T13:54:37.674Z,3.58
2019-01-19T13:58:21.300Z,2.35
2019-01-19T14:02:21.997Z,2.75
2019-01-19T14:06:00.972Z,2.00
2019-01-19T14:10:07.044Z,2.20
2019-01-19T14:13:51.430Z,2.77
2019-01-19T14:17:24.548Z,2.72
2019-01-19T14:21:08.821Z,2.00
2019-01-19T14:24:59.723Z,2.47
2019-01-19T14:28:52.615Z,3.05
2019-01-19T14:32:43.653Z,3.47
2019-01-19T14:36:23.498Z,2.55
2019-01-19T14:39:57.665Z,1.52
2019-01-19T14:43:47.081Z,3.22
2019-01-19T14:47:11.858Z,1.80
2019-01-19T14:50:46.136Z,3.40
2019-01-19T14:54:23.233Z,3.67
2019-01-19T14:58:23.287Z,4.40
2019-01-19T15:01:57.979Z,3.85
2019-01-19T15:05:27.135Z,5.42
2019-01-19T15:09:27.084Z,4.50
2019-01-19T15:12:57.807Z,4.50
2019-01-19T15:16:25.376Z,5.17
2019-01-19T15:20:22.572Z,5.58
2019-01-19T15:24:15.177Z,7.17
2019-01-19T15:28:00.242Z,5.35
2019-01-19T15:31:41.011Z,4.80
2019-01-19T15:35:24.292Z,5.75
2019-01-19T15:38:59.680Z,6.37
2019-01-19T15:43:02.615Z,9.18
2019-01-19T15:46:48.987Z,9.98
2019-01-19T15:50:44.573Z,7.87
2019-01-19T15:54:09.437Z,8.90
2019-01-19T15:57:29.383Z,7.53
2019-01-19T16:01:13.830Z,7.45
2019-01-19T16:05:05.031Z,9.78
2019-01-19T16:08:52.793Z,5.97
2019-01-19T16:12:32.141Z,8.15
2019-01-19T16:16:14.689Z,6.85
2019-01-19T16:20:10.461Z,7.40
2019-01-19T16:24:18.323Z,15.43
2019-01-19T16:28:26.586Z,8.45
2019-01-19T16:32:19.657Z,11.75
2019-01-19T16:36:03.455Z,6.55
2019-01-19T16:39:42.147Z,6.55
2019-01-19T16:43:14.905Z,11.50
2019-01-19T16:46:44.756Z,12.20
2019-01-19T16:50:04.710Z,13.08
2019-01-19T16:53:37.542Z,7.42
2019-01-19T16:57:37.833Z,7.90
2019-01-19T17:01:14.525Z,6.03
2019-01-19T17:04:47.685Z,9.03
2019-01-19T17:08:41.448Z,7.25
2019-01-19T17:12:32.139Z,6.83
2019-01-19T17:16:09.418Z,7.53
2019-01-19T17:19:56.902Z,6.12
2019-01-19T17:23:38.736Z,7.85
2019-01-19T17:27:08.772Z,11.88
2019-01-19T17:30:59.004Z,5.33
2019-01-19T17:35:01.956Z,6.03
2019-01-19T17:38:40.373Z,7.12
2019-01-19T17:42:15.771Z,5.97
2019-01-19T17:46:12.569Z,4.45
2019-01-19T17:49:35.586Z,5.78
2019-01-19T17:52:59.655Z,7.00
2019-01-19T17:56:36.296Z,6.85
2019-01-19T17:59:56.712Z,6.90
2019-01-19T18:03:53.486Z,6.47
2019-01-19T18:07:22.695Z,6.55
2019-01-19T18:10:55.034Z,7.05
2019-01-19T18:14:26.186Z,7.28
2019-01-19T18:18:10.211Z,7.60
2019-01-19T18:21:43.327Z,8.93
2019-01-19T18:25:52.434Z,6.65
2019-01-19T18:29:44.955Z,8.75
2019-01-19T18:33:14.225Z,7.85
2019-01-19T18:36:58.875Z,8.35
2019-01-19T18:40:40.487Z,6.65
2019-01-19T18:44:21.638Z,7.65
2019-01-19T18:47:37.196Z,8.50
2019-01-19T18:51:14.885Z,7.00
2019-01-19T18:55:02.633Z,8.00
2019-01-19T18:58:55.576Z,11.75
2019-01-19T19:02:52.237Z,10.13
2019-01-19T19:06:28.282Z,14.28
2019-01-19T19:10:16.159Z,12.43
2019-01-19T19:13:49.745Z,9.98
2019-01-19T19:17:36.170Z,20.95
2019-01-19T19:21:14.627Z,12.88
2019-01-19T19:24:46.864Z,10.15
2019-01-19T19:28:37.981Z,13.03
2019-01-19T19:32:11.246Z,23.77
2019-01-19T19:36:06.475Z,13.20
2019-01-19T19:39:37.813Z,55.43
2019-01-19T19:43:39.735Z,16.95
2019-01-19T19:47:26.505Z,14.25
2019-01-19T19:51:19.495Z,10.82
2019-01-19T19:54:27.584Z,13.35
2019-01-19T19:57:34.812Z,11.68
2019-01-19T20:00:42.544Z,9.73
2019-01-19T20:03:49.932Z,11.83
2019-01-19T20:06:57.046Z,10.55
2019-01-19T20:10:04.927Z,10.43
2019-01-19T20:13:14.547Z,9.75
2019-01-19T20:16:21.495Z,9.43
2019-01-19T20:19:28.651Z,9.00
2019-01-19T20:22:35.876Z,8.50
2019-01-19T20:25:43.073Z,9.40
2019-01-19T20:28:50.155Z,10.03
2019-01-19T20:31:57.328Z,9.63
2019-01-19T20:35:04.897Z,10.18
2019-01-19T20:38:12.168Z,11.05
2019-01-19T20:41:19.015Z,11.00
2019-01-19T20:44:25.970Z,10.70
2019-01-19T20:47:33.063Z,10.82
2019-01-19T20:50:39.950Z,10.38
2019-01-19T20:53:47.066Z,11.50
2019-01-19T20:56:54.114Z,13.60
2019-01-19T21:00:01.645Z,8.43
2019-01-19T21:03:08.618Z,9.33
2019-01-19T21:06:15.506Z,12.45
2019-01-19T21:09:22.647Z,10.20
2019-01-19T21:12:29.817Z,14.07
2019-01-19T21:15:36.996Z,11.05
2019-01-19T21:18:43.915Z,10.60
2019-01-19T21:21:50.813Z,11.18
2019-01-19T21:24:57.707Z,10.85
2019-01-19T21:28:04.554Z,11.20
2019-01-19T21:31:11.444Z,10.25
2019-01-19T21:34:18.267Z,10.82
2019-01-19T21:37:25.484Z,12.25
2019-01-19T21:40:38.773Z,8.63
2019-01-19T21:43:41.246Z,10.10
2019-01-19T21:46:48.211Z,8.38
2019-01-19T21:49:55.188Z,9.18
2019-01-19T21:53:02.182Z,11.60
2019-01-19T21:56:09.167Z,9.33
2019-01-19T21:59:16.056Z,11.73
2019-01-19T22:02:22.987Z,13.15
2019-01-19T22:05:31.069Z,10.00
2019-01-19T22:08:38.349Z,8.95
2019-01-19T22:11:46.664Z,7.97
2019-01-19T22:14:53.997Z,7.72
2019-01-19T22:18:01.145Z,7.90
2019-01-19T22:21:08.727Z,9.45
2019-01-19T22:24:17.017Z,10.70
2019-01-19T22:27:24.499Z,11.38
2019-01-19T22:30:31.794Z,11.22
2019-01-19T22:33:39.005Z,7.75
2019-01-19T22:36:46.268Z,8.53
2019-01-19T22:39:53.446Z,9.38
2019-01-19T22:43:04.632Z,9.30
2019-01-19T22:46:11.654Z,9.20
2019-01-19T22:49:19.314Z,7.12
2019-01-19T22:52:26.715Z,7.53
2019-01-19T22:55:33.823Z,8.28
2019-01-19T22:58:44.096Z,9.30
2019-01-19T23:02:11.964Z,8.68
2019-01-19T23:05:19.123Z,9.23
2019-01-19T23:08:26.442Z,8.40
2019-01-19T23:11:33.994Z,10.20
2019-01-19T23:14:42.179Z,8.60
2019-01-19T23:17:49.502Z,9.80
2019-01-19T23:20:58.897Z,9.23
2019-01-19T23:24:06.368Z,10.18
2019-01-19T23:27:13.698Z,9.13
2019-01-19T23:30:20.779Z,8.35
2019-01-19T23:33:28.393Z,9.75
2019-01-19T23:36:35.562Z,5.60
2019-01-19T23:39:42.916Z,9.53
2019-01-19T23:42:50.091Z,9.85
2019-01-19T23:45:57.363Z,9.68
2019-01-19T23:49:04.831Z,8.63
2019-01-19T23:52:12.079Z,8.48
2019-01-19T23:55:19.240Z,9.53
2019-01-19T23:58:26.588Z,8.35
